sensor_id;sensor_type;location;lat;lon;timestamp;P1;durP1;ratioP1;P2;durP2;ratioP2
62997;SDS011;55949;52.590;7.330;2022-11-18T00:00:00;23.83;;;14.50;;
62997;SDS011;55949;52.590;7.330;2022-11-18T00:01:07;25.40;;;15.38;;
62997;SDS011;55949;52.590;7.330;2022-11-18T00:02:10;27.02;;;15.38;;
62997;SDS011;55949;52.590;7.330;2022-11-18T00:03:11;25.60;;;15.13;;
62997;SDS011;55949;52.590;7.330;2022-11-18T00:04:11;26.58;;;15.90;;
62997;SDS011;55949;52.590;7.330;2022-11-18T00:05:12;25.65;;;16.15;;
62997;SDS011;55949;52.590;7.330;2022-11-18T00:06:14;25.85;;;14.93;;
62997;SDS011;55949;52.590;7.330;2022-11-18T00:07:17;30.33;;;15.82;;
62997;SDS011;55949;52.590;7.330;2022-11-18T00:08:18;26.83;;;16.63;;
62997;SDS011;55949;52.590;7.330;2022-11-18T00:09:19;29.48;;;15.98;;
62997;SDS011;55949;52.590;7.330;2022-11-18T00:10:20;26.83;;;15.85;;
62997;SDS011;55949;52.590;7.330;2022-11-18T00:11:22;25.55;;;15.45;;
62997;SDS011;55949;52.590;7.330;2022-11-18T00:12:42;25.65;;;14.65;;
62997;SDS011;55949;52.590;7.330;2022-11-18T00:14:01;27.17;;;15.30;;
62997;SDS011;55949;52.590;7.330;2022-11-18T00:15:18;27.80;;;14.27;;
62997;SDS011;55949;52.590;7.330;2022-11-18T00:16:18;24.98;;;14.43;;
62997;SDS011;55949;52.590;7.330;2022-11-18T00:17:19;28.85;;;17.10;;
62997;SDS011;55949;52.590;7.330;2022-11-18T00:18:20;24.65;;;15.65;;
62997;SDS011;55949;52.590;7.330;2022-11-18T00:19:24;27.17;;;15.57;;
62997;SDS011;55949;52.590;7.330;2022-11-18T00:20:26;26.98;;;16.13;;
62997;SDS011;55949;52.590;7.330;2022-11-18T00:21:27;27.85;;;16.08;;
62997;SDS011;55949;52.590;7.330;2022-11-18T00:22:28;27.85;;;15.35;;
62997;SDS011;55949;52.590;7.330;2022-11-18T00:23:29;27.08;;;15.27;;
62997;SDS011;55949;52.590;7.330;2022-11-18T00:24:30;26.63;;;16.77;;
62997;SDS011;55949;52.590;7.330;2022-11-18T00:25:32;24.73;;;16.30;;
62997;SDS011;55949;52.590;7.330;2022-11-18T00:26:33;28.80;;;16.80;;
62997;SDS011;55949;52.590;7.330;2022-11-18T00:27:35;25.88;;;15.88;;
62997;SDS011;55949;52.590;7.330;2022-11-18T00:28:35;26.63;;;15.02;;
62997;SDS011;55949;52.590;7.330;2022-11-18T00:29:36;30.05;;;15.23;;
62997;SDS011;55949;52.590;7.330;2022-11-18T00:30:37;24.50;;;15.90;;
62997;SDS011;55949;52.590;7.330;2022-11-18T00:31:38;27.42;;;15.35;;
62997;SDS011;55949;52.590;7.330;2022-11-18T00:32:39;24.67;;;15.15;;
62997;SDS011;55949;52.590;7.330;2022-11-18T00:33:39;30.70;;;15.73;;
62997;SDS011;55949;52.590;7.330;2022-11-18T00:34:40;29.30;;;16.77;;
62997;SDS011;55949;52.590;7.330;2022-11-18T00:35:41;26.90;;;15.52;;
62997;SDS011;55949;52.590;7.330;2022-11-18T00:36:42;30.25;;;16.92;;
62997;SDS011;55949;52.590;7.330;2022-11-18T00:37:44;25.85;;;15.00;;
62997;SDS011;55949;52.590;7.330;2022-11-18T00:38:44;26.52;;;15.48;;
62997;SDS011;55949;52.590;7.330;2022-11-18T00:39:45;27.38;;;16.10;;
62997;SDS011;55949;52.590;7.330;2022-11-18T00:40:46;26.15;;;15.85;;
62997;SDS011;55949;52.590;7.330;2022-11-18T00:41:47;27.83;;;15.85;;
62997;SDS011;55949;52.590;7.330;2022-11-18T00:43:06;33.28;;;16.27;;
62997;SDS011;55949;52.590;7.330;2022-11-18T00:44:07;28.98;;;16.55;;
62997;SDS011;55949;52.590;7.330;2022-11-18T00:45:08;28.95;;;15.73;;
62997;SDS011;55949;52.590;7.330;2022-11-18T00:46:09;28.77;;;16.80;;
62997;SDS011;55949;52.590;7.330;2022-11-18T00:47:11;26.75;;;14.80;;
62997;SDS011;55949;52.590;7.330;2022-11-18T00:48:11;27.60;;;15.98;;
62997;SDS011;55949;52.590;7.330;2022-11-18T00:49:12;27.02;;;14.95;;
62997;SDS011;55949;52.590;7.330;2022-11-18T00:50:13;29.77;;;16.98;;
62997;SDS011;55949;52.590;7.330;2022-11-18T00:51:15;28.33;;;16.83;;
62997;SDS011;55949;52.590;7.330;2022-11-18T00:52:17;26.85;;;15.82;;
62997;SDS011;55949;52.590;7.330;2022-11-18T00:53:18;30.30;;;17.52;;
62997;SDS011;55949;52.590;7.330;2022-11-18T00:54:20;30.17;;;16.63;;
62997;SDS011;55949;52.590;7.330;2022-11-18T00:55:21;26.25;;;16.00;;
62997;SDS011;55949;52.590;7.330;2022-11-18T00:56:21;28.48;;;16.35;;
62997;SDS011;55949;52.590;7.330;2022-11-18T00:57:22;28.10;;;16.40;;
62997;SDS011;55949;52.590;7.330;2022-11-18T00:58:23;29.35;;;16.38;;
62997;SDS011;55949;52.590;7.330;2022-11-18T00:59:24;30.77;;;16.77;;
62997;SDS011;55949;52.590;7.330;2022-11-18T01:00:24;30.52;;;15.25;;
62997;SDS011;55949;52.590;7.330;2022-11-18T01:01:25;28.75;;;16.05;;
62997;SDS011;55949;52.590;7.330;2022-11-18T01:02:26;28.60;;;16.05;;
62997;SDS011;55949;52.590;7.330;2022-11-18T01:03:27;25.80;;;16.35;;
62997;SDS011;55949;52.590;7.330;2022-11-18T01:04:29;28.52;;;16.45;;
62997;SDS011;55949;52.590;7.330;2022-11-18T01:05:29;29.90;;;16.83;;
62997;SDS011;55949;52.590;7.330;2022-11-18T01:06:30;28.17;;;16.60;;
62997;SDS011;55949;52.590;7.330;2022-11-18T01:07:31;25.48;;;15.48;;
62997;SDS011;55949;52.590;7.330;2022-11-18T01:08:31;29.77;;;15.95;;
62997;SDS011;55949;52.590;7.330;2022-11-18T01:09:32;33.20;;;16.20;;
62997;SDS011;55949;52.590;7.330;2022-11-18T01:10:33;31.00;;;16.45;;
62997;SDS011;55949;52.590;7.330;2022-11-18T01:11:34;32.90;;;16.92;;
62997;SDS011;55949;52.590;7.330;2022-11-18T01:12:53;29.17;;;15.63;;
62997;SDS011;55949;52.590;7.330;2022-11-18T01:14:13;29.88;;;15.40;;
62997;SDS011;55949;52.590;7.330;2022-11-18T01:15:13;27.98;;;16.23;;
62997;SDS011;55949;52.590;7.330;2022-11-18T01:16:17;29.25;;;16.98;;
62997;SDS011;55949;52.590;7.330;2022-11-18T01:17:19;27.58;;;15.82;;
62997;SDS011;55949;52.590;7.330;2022-11-18T01:18:21;31.80;;;17.33;;
62997;SDS011;55949;52.590;7.330;2022-11-18T01:19:26;27.00;;;15.27;;
62997;SDS011;55949;52.590;7.330;2022-11-18T01:20:27;30.75;;;15.55;;
62997;SDS011;55949;52.590;7.330;2022-11-18T01:21:28;29.45;;;16.52;;
62997;SDS011;55949;52.590;7.330;2022-11-18T01:22:28;30.20;;;16.55;;
62997;SDS011;55949;52.590;7.330;2022-11-18T01:23:29;32.88;;;17.50;;
62997;SDS011;55949;52.590;7.330;2022-11-18T01:24:33;29.58;;;15.82;;
62997;SDS011;55949;52.590;7.330;2022-11-18T01:25:35;30.15;;;17.48;;
62997;SDS011;55949;52.590;7.330;2022-11-18T01:26:36;29.08;;;16.80;;
62997;SDS011;55949;52.590;7.330;2022-11-18T01:27:37;27.63;;;17.05;;
62997;SDS011;55949;52.590;7.330;2022-11-18T01:28:37;29.45;;;16.13;;
62997;SDS011;55949;52.590;7.330;2022-11-18T01:29:38;29.75;;;16.83;;
62997;SDS011;55949;52.590;7.330;2022-11-18T01:30:39;30.45;;;16.02;;
62997;SDS011;55949;52.590;7.330;2022-11-18T01:31:40;31.77;;;16.23;;
62997;SDS011;55949;52.590;7.330;2022-11-18T01:32:42;32.58;;;16.15;;
62997;SDS011;55949;52.590;7.330;2022-11-18T01:33:43;30.63;;;15.68;;
62997;SDS011;55949;52.590;7.330;2022-11-18T01:34:44;31.90;;;17.20;;
62997;SDS011;55949;52.590;7.330;2022-11-18T01:35:45;32.08;;;16.23;;
62997;SDS011;55949;52.590;7.330;2022-11-18T01:36:46;30.85;;;17.08;;
62997;SDS011;55949;52.590;7.330;2022-11-18T01:37:46;33.97;;;17.23;;
62997;SDS011;55949;52.590;7.330;2022-11-18T01:38:47;29.90;;;17.40;;
62997;SDS011;55949;52.590;7.330;2022-11-18T01:39:48;34.72;;;18.30;;
62997;SDS011;55949;52.590;7.330;2022-11-18T01:40:49;32.38;;;16.88;;
62997;SDS011;55949;52.590;7.330;2022-11-18T01:41:49;32.28;;;17.13;;
62997;SDS011;55949;52.590;7.330;2022-11-18T01:42:50;32.90;;;17.98;;
62997;SDS011;55949;52.590;7.330;2022-11-18T01:43:52;30.70;;;16.42;;
62997;SDS011;55949;52.590;7.330;2022-11-18T01:45:37;29.45;;;16.42;;
62997;SDS011;55949;52.590;7.330;2022-11-18T01:46:24;32.95;;;16.25;;
62997;SDS011;55949;52.590;7.330;2022-11-18T01:47:29;31.83;;;16.15;;
62997;SDS011;55949;52.590;7.330;2022-11-18T01:48:34;33.53;;;16.85;;
62997;SDS011;55949;52.590;7.330;2022-11-18T01:49:35;34.30;;;17.73;;
62997;SDS011;55949;52.590;7.330;2022-11-18T01:50:36;32.25;;;17.27;;
62997;SDS011;55949;52.590;7.330;2022-11-18T01:51:48;33.60;;;15.88;;
62997;SDS011;55949;52.590;7.330;2022-11-18T01:52:53;32.80;;;17.50;;
62997;SDS011;55949;52.590;7.330;2022-11-18T01:54:01;35.28;;;16.98;;
62997;SDS011;55949;52.590;7.330;2022-11-18T01:55:07;30.52;;;17.38;;
62997;SDS011;55949;52.590;7.330;2022-11-18T01:56:15;31.15;;;16.00;;
62997;SDS011;55949;52.590;7.330;2022-11-18T01:57:18;36.22;;;18.23;;
62997;SDS011;55949;52.590;7.330;2022-11-18T01:59:04;31.45;;;16.17;;
62997;SDS011;55949;52.590;7.330;2022-11-18T01:59:49;32.05;;;16.42;;
62997;SDS011;55949;52.590;7.330;2022-11-18T02:00:53;29.55;;;15.70;;
62997;SDS011;55949;52.590;7.330;2022-11-18T02:01:54;35.47;;;16.45;;
62997;SDS011;55949;52.590;7.330;2022-11-18T02:02:55;35.78;;;17.55;;
62997;SDS011;55949;52.590;7.330;2022-11-18T02:03:56;33.90;;;17.55;;
62997;SDS011;55949;52.590;7.330;2022-11-18T02:04:57;33.58;;;17.67;;
62997;SDS011;55949;52.590;7.330;2022-11-18T02:06:00;29.52;;;16.30;;
62997;SDS011;55949;52.590;7.330;2022-11-18T02:07:02;32.20;;;17.00;;
62997;SDS011;55949;52.590;7.330;2022-11-18T02:08:03;30.65;;;17.25;;
62997;SDS011;55949;52.590;7.330;2022-11-18T02:09:05;33.50;;;16.63;;
62997;SDS011;55949;52.590;7.330;2022-11-18T02:10:08;34.03;;;15.93;;
62997;SDS011;55949;52.590;7.330;2022-11-18T02:11:16;30.83;;;16.05;;
62997;SDS011;55949;52.590;7.330;2022-11-18T02:12:35;33.92;;;17.02;;
62997;SDS011;55949;52.590;7.330;2022-11-18T02:13:37;32.95;;;17.05;;
62997;SDS011;55949;52.590;7.330;2022-11-18T02:14:39;34.67;;;16.88;;
62997;SDS011;55949;52.590;7.330;2022-11-18T02:20:38;31.65;;;16.75;;
62997;SDS011;55949;52.590;7.330;2022-11-18T02:23:20;31.00;;;15.75;;
62997;SDS011;55949;52.590;7.330;2022-11-18T02:24:48;31.83;;;16.27;;
62997;SDS011;55949;52.590;7.330;2022-11-18T02:30:25;31.33;;;16.17;;
62997;SDS011;55949;52.590;7.330;2022-11-18T02:35:17;32.92;;;16.25;;
62997;SDS011;55949;52.590;7.330;2022-11-18T02:36:36;33.03;;;16.55;;
62997;SDS011;55949;52.590;7.330;2022-11-18T02:38:49;30.25;;;17.40;;
62997;SDS011;55949;52.590;7.330;2022-11-18T02:40:00;32.75;;;17.45;;
62997;SDS011;55949;52.590;7.330;2022-11-18T02:41:22;30.23;;;16.63;;
62997;SDS011;55949;52.590;7.330;2022-11-18T02:42:27;33.95;;;17.13;;
62997;SDS011;55949;52.590;7.330;2022-11-18T02:43:37;34.65;;;18.80;;
62997;SDS011;55949;52.590;7.330;2022-11-18T02:44:41;34.95;;;18.20;;
62997;SDS011;55949;52.590;7.330;2022-11-18T02:45:50;32.17;;;17.25;;
62997;SDS011;55949;52.590;7.330;2022-11-18T02:46:58;37.45;;;17.95;;
62997;SDS011;55949;52.590;7.330;2022-11-18T02:48:07;33.88;;;17.13;;
62997;SDS011;55949;52.590;7.330;2022-11-18T02:49:19;34.25;;;16.40;;
62997;SDS011;55949;52.590;7.330;2022-11-18T02:50:24;33.25;;;17.75;;
62997;SDS011;55949;52.590;7.330;2022-11-18T02:51:28;38.72;;;17.98;;
62997;SDS011;55949;52.590;7.330;2022-11-18T02:52:30;31.85;;;15.98;;
62997;SDS011;55949;52.590;7.330;2022-11-18T02:53:33;37.65;;;17.88;;
62997;SDS011;55949;52.590;7.330;2022-11-18T02:54:38;35.17;;;17.70;;
62997;SDS011;55949;52.590;7.330;2022-11-18T02:55:41;34.55;;;17.25;;
62997;SDS011;55949;52.590;7.330;2022-11-18T02:56:43;32.70;;;17.30;;
62997;SDS011;55949;52.590;7.330;2022-11-18T02:57:45;33.13;;;16.48;;
62997;SDS011;55949;52.590;7.330;2022-11-18T02:58:47;36.55;;;18.33;;
62997;SDS011;55949;52.590;7.330;2022-11-18T02:59:48;33.72;;;18.38;;
62997;SDS011;55949;52.590;7.330;2022-11-18T03:00:56;31.08;;;16.58;;
62997;SDS011;55949;52.590;7.330;2022-11-18T03:01:58;28.80;;;16.42;;
62997;SDS011;55949;52.590;7.330;2022-11-18T03:02:59;31.58;;;16.00;;
62997;SDS011;55949;52.590;7.330;2022-11-18T03:04:00;32.80;;;17.30;;
62997;SDS011;55949;52.590;7.330;2022-11-18T03:05:01;35.15;;;18.15;;
62997;SDS011;55949;52.590;7.330;2022-11-18T03:07:28;32.50;;;17.00;;
62997;SDS011;55949;52.590;7.330;2022-11-18T03:08:37;31.25;;;17.00;;
62997;SDS011;55949;52.590;7.330;2022-11-18T03:09:49;34.20;;;17.08;;
62997;SDS011;55949;52.590;7.330;2022-11-18T03:10:53;35.90;;;17.75;;
62997;SDS011;55949;52.590;7.330;2022-11-18T03:13:51;40.05;;;17.65;;
62997;SDS011;55949;52.590;7.330;2022-11-18T03:15:31;35.53;;;17.65;;
62997;SDS011;55949;52.590;7.330;2022-11-18T03:16:37;36.47;;;17.40;;
62997;SDS011;55949;52.590;7.330;2022-11-18T03:18:04;36.22;;;17.10;;
62997;SDS011;55949;52.590;7.330;2022-11-18T03:20:43;29.40;;;16.00;;
62997;SDS011;55949;52.590;7.330;2022-11-18T03:21:53;31.55;;;17.55;;
62997;SDS011;55949;52.590;7.330;2022-11-18T03:24:13;35.42;;;16.35;;
62997;SDS011;55949;52.590;7.330;2022-11-18T03:25:22;36.30;;;17.95;;
62997;SDS011;55949;52.590;7.330;2022-11-18T03:26:29;35.47;;;17.92;;
62997;SDS011;55949;52.590;7.330;2022-11-18T03:30:05;38.08;;;17.23;;
62997;SDS011;55949;52.590;7.330;2022-11-18T03:31:14;36.67;;;17.38;;
62997;SDS011;55949;52.590;7.330;2022-11-18T03:32:23;33.85;;;16.92;;
62997;SDS011;55949;52.590;7.330;2022-11-18T03:33:29;32.55;;;16.33;;
62997;SDS011;55949;52.590;7.330;2022-11-18T03:34:35;33.85;;;17.42;;
62997;SDS011;55949;52.590;7.330;2022-11-18T03:35:41;36.85;;;16.60;;
62997;SDS011;55949;52.590;7.330;2022-11-18T03:36:49;36.47;;;15.68;;
62997;SDS011;55949;52.590;7.330;2022-11-18T03:37:55;35.50;;;17.35;;
62997;SDS011;55949;52.590;7.330;2022-11-18T03:39:02;32.63;;;17.08;;
62997;SDS011;55949;52.590;7.330;2022-11-18T03:40:08;36.63;;;18.63;;
62997;SDS011;55949;52.590;7.330;2022-11-18T03:41:19;37.42;;;16.67;;
62997;SDS011;55949;52.590;7.330;2022-11-18T03:42:42;36.80;;;17.70;;
62997;SDS011;55949;52.590;7.330;2022-11-18T03:43:50;36.83;;;17.95;;
62997;SDS011;55949;52.590;7.330;2022-11-18T03:44:58;40.47;;;16.88;;
62997;SDS011;55949;52.590;7.330;2022-11-18T03:46:28;33.80;;;16.42;;
62997;SDS011;55949;52.590;7.330;2022-11-18T03:47:36;35.08;;;17.88;;
62997;SDS011;55949;52.590;7.330;2022-11-18T03:48:53;29.85;;;15.82;;
62997;SDS011;55949;52.590;7.330;2022-11-18T03:49:59;34.13;;;17.98;;
62997;SDS011;55949;52.590;7.330;2022-11-18T03:51:08;31.23;;;17.80;;
62997;SDS011;55949;52.590;7.330;2022-11-18T03:52:14;36.50;;;17.08;;
62997;SDS011;55949;52.590;7.330;2022-11-18T03:53:27;32.88;;;16.83;;
62997;SDS011;55949;52.590;7.330;2022-11-18T03:54:33;30.55;;;15.50;;
62997;SDS011;55949;52.590;7.330;2022-11-18T03:55:37;36.55;;;17.25;;
62997;SDS011;55949;52.590;7.330;2022-11-18T03:56:44;31.92;;;15.88;;
62997;SDS011;55949;52.590;7.330;2022-11-18T03:59:20;31.10;;;16.48;;
62997;SDS011;55949;52.590;7.330;2022-11-18T04:00:38;36.17;;;17.08;;
62997;SDS011;55949;52.590;7.330;2022-11-18T04:02:58;32.10;;;16.67;;
62997;SDS011;55949;52.590;7.330;2022-11-18T04:03:59;33.90;;;17.25;;
62997;SDS011;55949;52.590;7.330;2022-11-18T04:05:00;30.38;;;15.68;;
62997;SDS011;55949;52.590;7.330;2022-11-18T04:06:46;39.95;;;17.15;;
62997;SDS011;55949;52.590;7.330;2022-11-18T04:08:37;34.58;;;17.20;;
62997;SDS011;55949;52.590;7.330;2022-11-18T04:09:47;34.33;;;16.95;;
62997;SDS011;55949;52.590;7.330;2022-11-18T04:11:02;33.88;;;16.60;;
62997;SDS011;55949;52.590;7.330;2022-11-18T04:12:35;36.17;;;16.83;;
62997;SDS011;55949;52.590;7.330;2022-11-18T04:13:41;32.53;;;16.42;;
62997;SDS011;55949;52.590;7.330;2022-11-18T04:14:42;31.70;;;16.15;;
62997;SDS011;55949;52.590;7.330;2022-11-18T04:15:45;32.83;;;16.70;;
62997;SDS011;55949;52.590;7.330;2022-11-18T04:16:48;37.10;;;16.52;;
62997;SDS011;55949;52.590;7.330;2022-11-18T04:17:51;40.25;;;16.23;;
62997;SDS011;55949;52.590;7.330;2022-11-18T04:18:52;36.08;;;17.15;;
62997;SDS011;55949;52.590;7.330;2022-11-18T04:19:53;38.53;;;17.48;;
62997;SDS011;55949;52.590;7.330;2022-11-18T04:20:53;36.03;;;16.38;;
62997;SDS011;55949;52.590;7.330;2022-11-18T04:21:54;32.15;;;16.40;;
62997;SDS011;55949;52.590;7.330;2022-11-18T04:22:55;35.97;;;17.17;;
62997;SDS011;55949;52.590;7.330;2022-11-18T04:23:55;38.95;;;15.93;;
62997;SDS011;55949;52.590;7.330;2022-11-18T04:24:56;41.20;;;17.90;;
62997;SDS011;55949;52.590;7.330;2022-11-18T04:25:57;31.85;;;17.23;;
62997;SDS011;55949;52.590;7.330;2022-11-18T04:26:58;34.22;;;17.02;;
62997;SDS011;55949;52.590;7.330;2022-11-18T04:27:59;34.95;;;17.33;;
62997;SDS011;55949;52.590;7.330;2022-11-18T04:28:59;35.28;;;17.23;;
62997;SDS011;55949;52.590;7.330;2022-11-18T04:30:00;34.17;;;16.95;;
62997;SDS011;55949;52.590;7.330;2022-11-18T04:31:01;33.00;;;15.98;;
62997;SDS011;55949;52.590;7.330;2022-11-18T04:32:02;30.88;;;16.00;;
62997;SDS011;55949;52.590;7.330;2022-11-18T04:33:04;36.92;;;17.58;;
62997;SDS011;55949;52.590;7.330;2022-11-18T04:34:04;33.53;;;15.57;;
62997;SDS011;55949;52.590;7.330;2022-11-18T04:35:05;36.47;;;16.85;;
62997;SDS011;55949;52.590;7.330;2022-11-18T04:36:06;35.20;;;16.55;;
62997;SDS011;55949;52.590;7.330;2022-11-18T04:37:07;38.45;;;17.05;;
62997;SDS011;55949;52.590;7.330;2022-11-18T04:38:07;35.58;;;17.38;;
62997;SDS011;55949;52.590;7.330;2022-11-18T04:39:08;33.15;;;16.92;;
62997;SDS011;55949;52.590;7.330;2022-11-18T04:40:09;42.92;;;18.98;;
62997;SDS011;55949;52.590;7.330;2022-11-18T04:41:10;36.63;;;17.48;;
62997;SDS011;55949;52.590;7.330;2022-11-18T04:42:10;33.92;;;16.95;;
62997;SDS011;55949;52.590;7.330;2022-11-18T04:43:11;35.22;;;16.98;;
62997;SDS011;55949;52.590;7.330;2022-11-18T04:44:12;33.35;;;16.90;;
62997;SDS011;55949;52.590;7.330;2022-11-18T04:45:13;34.95;;;17.25;;
62997;SDS011;55949;52.590;7.330;2022-11-18T04:46:13;37.95;;;16.52;;
62997;SDS011;55949;52.590;7.330;2022-11-18T04:47:14;38.55;;;17.60;;
62997;SDS011;55949;52.590;7.330;2022-11-18T04:48:14;37.85;;;16.90;;
62997;SDS011;55949;52.590;7.330;2022-11-18T04:49:15;39.80;;;17.63;;
62997;SDS011;55949;52.590;7.330;2022-11-18T04:50:16;31.90;;;16.10;;
62997;SDS011;55949;52.590;7.330;2022-11-18T04:51:17;35.95;;;17.20;;
62997;SDS011;55949;52.590;7.330;2022-11-18T04:52:17;36.63;;;17.90;;
62997;SDS011;55949;52.590;7.330;2022-11-18T04:53:18;39.85;;;17.10;;
62997;SDS011;55949;52.590;7.330;2022-11-18T04:54:19;39.47;;;17.38;;
62997;SDS011;55949;52.590;7.330;2022-11-18T04:55:20;38.75;;;17.73;;
62997;SDS011;55949;52.590;7.330;2022-11-18T04:56:21;35.42;;;16.98;;
62997;SDS011;55949;52.590;7.330;2022-11-18T04:57:21;40.25;;;17.08;;
62997;SDS011;55949;52.590;7.330;2022-11-18T04:58:22;34.78;;;16.75;;
62997;SDS011;55949;52.590;7.330;2022-11-18T04:59:24;39.50;;;18.00;;
62997;SDS011;55949;52.590;7.330;2022-11-18T05:00:26;38.42;;;16.13;;
62997;SDS011;55949;52.590;7.330;2022-11-18T05:01:27;38.13;;;18.33;;
62997;SDS011;55949;52.590;7.330;2022-11-18T05:02:29;39.10;;;17.23;;
62997;SDS011;55949;52.590;7.330;2022-11-18T05:03:29;39.83;;;17.67;;
62997;SDS011;55949;52.590;7.330;2022-11-18T05:04:31;41.22;;;17.08;;
62997;SDS011;55949;52.590;7.330;2022-11-18T05:05:33;40.53;;;18.90;;
62997;SDS011;55949;52.590;7.330;2022-11-18T05:06:34;40.15;;;17.40;;
62997;SDS011;55949;52.590;7.330;2022-11-18T05:07:34;41.58;;;18.13;;
62997;SDS011;55949;52.590;7.330;2022-11-18T05:08:35;41.42;;;19.20;;
62997;SDS011;55949;52.590;7.330;2022-11-18T05:09:36;43.17;;;19.23;;
62997;SDS011;55949;52.590;7.330;2022-11-18T05:10:37;38.05;;;17.92;;
62997;SDS011;55949;52.590;7.330;2022-11-18T05:11:38;42.25;;;18.85;;
62997;SDS011;55949;52.590;7.330;2022-11-18T05:12:57;37.03;;;16.83;;
62997;SDS011;55949;52.590;7.330;2022-11-18T05:13:58;42.95;;;19.02;;
62997;SDS011;55949;52.590;7.330;2022-11-18T05:14:59;41.25;;;17.35;;
62997;SDS011;55949;52.590;7.330;2022-11-18T05:16:00;40.28;;;18.02;;
62997;SDS011;55949;52.590;7.330;2022-11-18T05:17:01;41.45;;;18.52;;
62997;SDS011;55949;52.590;7.330;2022-11-18T05:18:03;40.25;;;17.80;;
62997;SDS011;55949;52.590;7.330;2022-11-18T05:19:05;41.20;;;17.67;;
62997;SDS011;55949;52.590;7.330;2022-11-18T05:20:06;44.50;;;18.25;;
62997;SDS011;55949;52.590;7.330;2022-11-18T05:21:07;40.88;;;16.50;;
62997;SDS011;55949;52.590;7.330;2022-11-18T05:22:08;39.35;;;16.88;;
62997;SDS011;55949;52.590;7.330;2022-11-18T05:23:09;40.80;;;17.95;;
62997;SDS011;55949;52.590;7.330;2022-11-18T05:24:09;31.83;;;16.17;;
62997;SDS011;55949;52.590;7.330;2022-11-18T05:25:10;33.60;;;16.98;;
62997;SDS011;55949;52.590;7.330;2022-11-18T05:26:11;38.30;;;16.85;;
62997;SDS011;55949;52.590;7.330;2022-11-18T05:27:12;38.13;;;17.08;;
62997;SDS011;55949;52.590;7.330;2022-11-18T05:28:14;34.50;;;16.08;;
62997;SDS011;55949;52.590;7.330;2022-11-18T05:29:16;36.65;;;16.08;;
62997;SDS011;55949;52.590;7.330;2022-11-18T05:30:18;36.25;;;16.65;;
62997;SDS011;55949;52.590;7.330;2022-11-18T05:31:19;38.13;;;16.00;;
62997;SDS011;55949;52.590;7.330;2022-11-18T05:32:19;42.35;;;17.35;;
62997;SDS011;55949;52.590;7.330;2022-11-18T05:33:20;43.30;;;18.50;;
62997;SDS011;55949;52.590;7.330;2022-11-18T05:34:21;40.90;;;16.38;;
62997;SDS011;55949;52.590;7.330;2022-11-18T05:35:22;37.45;;;16.65;;
62997;SDS011;55949;52.590;7.330;2022-11-18T05:36:22;39.33;;;18.27;;
62997;SDS011;55949;52.590;7.330;2022-11-18T05:37:23;42.13;;;16.60;;
62997;SDS011;55949;52.590;7.330;2022-11-18T05:38:24;39.83;;;16.58;;
62997;SDS011;55949;52.590;7.330;2022-11-18T05:39:25;40.75;;;17.30;;
62997;SDS011;55949;52.590;7.330;2022-11-18T05:40:25;46.42;;;16.65;;
62997;SDS011;55949;52.590;7.330;2022-11-18T05:41:26;33.95;;;15.95;;
62997;SDS011;55949;52.590;7.330;2022-11-18T05:42:45;36.37;;;14.63;;
62997;SDS011;55949;52.590;7.330;2022-11-18T05:44:05;39.65;;;14.60;;
62997;SDS011;55949;52.590;7.330;2022-11-18T05:45:05;34.40;;;15.82;;
62997;SDS011;55949;52.590;7.330;2022-11-18T05:46:06;33.58;;;15.73;;
62997;SDS011;55949;52.590;7.330;2022-11-18T05:47:07;32.00;;;14.93;;
62997;SDS011;55949;52.590;7.330;2022-11-18T05:48:08;33.03;;;15.30;;
62997;SDS011;55949;52.590;7.330;2022-11-18T05:49:08;37.63;;;15.77;;
62997;SDS011;55949;52.590;7.330;2022-11-18T05:50:09;33.35;;;15.50;;
62997;SDS011;55949;52.590;7.330;2022-11-18T05:51:10;34.33;;;15.90;;
62997;SDS011;55949;52.590;7.330;2022-11-18T05:52:10;33.50;;;14.35;;
62997;SDS011;55949;52.590;7.330;2022-11-18T05:53:11;34.95;;;15.23;;
62997;SDS011;55949;52.590;7.330;2022-11-18T05:54:13;38.65;;;17.05;;
62997;SDS011;55949;52.590;7.330;2022-11-18T05:55:16;34.80;;;14.98;;
62997;SDS011;55949;52.590;7.330;2022-11-18T05:57:49;31.48;;;14.07;;
62997;SDS011;55949;52.590;7.330;2022-11-18T05:58:50;33.33;;;14.23;;
62997;SDS011;55949;52.590;7.330;2022-11-18T05:59:50;33.40;;;14.85;;
62997;SDS011;55949;52.590;7.330;2022-11-18T06:00:52;33.72;;;14.55;;
62997;SDS011;55949;52.590;7.330;2022-11-18T06:02:00;30.20;;;14.00;;
62997;SDS011;55949;52.590;7.330;2022-11-18T06:03:04;33.42;;;13.57;;
62997;SDS011;55949;52.590;7.330;2022-11-18T06:04:45;33.63;;;14.75;;
62997;SDS011;55949;52.590;7.330;2022-11-18T06:06:43;27.85;;;12.68;;
62997;SDS011;55949;52.590;7.330;2022-11-18T06:07:46;30.65;;;13.27;;
62997;SDS011;55949;52.590;7.330;2022-11-18T06:08:52;30.27;;;14.70;;
62997;SDS011;55949;52.590;7.330;2022-11-18T06:10:01;31.05;;;13.57;;
62997;SDS011;55949;52.590;7.330;2022-11-18T06:11:02;37.88;;;14.95;;
62997;SDS011;55949;52.590;7.330;2022-11-18T06:12:04;33.95;;;13.77;;
62997;SDS011;55949;52.590;7.330;2022-11-18T06:13:06;31.25;;;13.77;;
62997;SDS011;55949;52.590;7.330;2022-11-18T06:14:13;29.15;;;11.57;;
62997;SDS011;55949;52.590;7.330;2022-11-18T06:15:31;29.83;;;13.13;;
62997;SDS011;55949;52.590;7.330;2022-11-18T06:16:35;28.48;;;12.80;;
62997;SDS011;55949;52.590;7.330;2022-11-18T06:17:44;30.30;;;13.60;;
62997;SDS011;55949;52.590;7.330;2022-11-18T06:18:49;27.88;;;12.55;;
62997;SDS011;55949;52.590;7.330;2022-11-18T06:19:50;27.02;;;12.82;;
62997;SDS011;55949;52.590;7.330;2022-11-18T06:20:52;29.10;;;13.32;;
62997;SDS011;55949;52.590;7.330;2022-11-18T06:21:55;32.17;;;13.43;;
62997;SDS011;55949;52.590;7.330;2022-11-18T06:22:57;32.20;;;12.77;;
62997;SDS011;55949;52.590;7.330;2022-11-18T06:23:58;27.10;;;12.65;;
62997;SDS011;55949;52.590;7.330;2022-11-18T06:24:59;26.45;;;12.52;;
62997;SDS011;55949;52.590;7.330;2022-11-18T06:26:01;25.58;;;11.90;;
62997;SDS011;55949;52.590;7.330;2022-11-18T06:27:02;31.95;;;12.98;;
62997;SDS011;55949;52.590;7.330;2022-11-18T06:28:03;34.80;;;13.98;;
62997;SDS011;55949;52.590;7.330;2022-11-18T06:29:04;34.13;;;13.68;;
62997;SDS011;55949;52.590;7.330;2022-11-18T06:30:07;32.50;;;13.30;;
62997;SDS011;55949;52.590;7.330;2022-11-18T06:31:08;32.22;;;12.27;;
62997;SDS011;55949;52.590;7.330;2022-11-18T06:32:09;27.85;;;12.63;;
62997;SDS011;55949;52.590;7.330;2022-11-18T06:33:10;29.08;;;13.57;;
62997;SDS011;55949;52.590;7.330;2022-11-18T06:34:10;35.63;;;13.27;;
62997;SDS011;55949;52.590;7.330;2022-11-18T06:35:11;33.40;;;12.40;;
62997;SDS011;55949;52.590;7.330;2022-11-18T06:36:12;30.80;;;13.65;;
62997;SDS011;55949;52.590;7.330;2022-11-18T06:37:13;26.05;;;12.05;;
62997;SDS011;55949;52.590;7.330;2022-11-18T06:38:15;28.05;;;13.68;;
62997;SDS011;55949;52.590;7.330;2022-11-18T06:39:16;28.90;;;12.38;;
62997;SDS011;55949;52.590;7.330;2022-11-18T06:40:17;32.65;;;12.98;;
62997;SDS011;55949;52.590;7.330;2022-11-18T06:41:18;31.42;;;12.50;;
62997;SDS011;55949;52.590;7.330;2022-11-18T06:42:18;28.27;;;13.63;;
62997;SDS011;55949;52.590;7.330;2022-11-18T06:43:37;32.60;;;12.93;;
62997;SDS011;55949;52.590;7.330;2022-11-18T06:44:40;28.77;;;12.57;;